Time;durP1;ratioP1;P1;durP2;ratioP2;P2;SDS_P1;SDS_P2;PMS_P1;PMS_P2;Temp;Humidity;BMP_temperature;BMP_pressure;BME280_temperature;BME280_humidity;BME280_pressure;Samples;Min_cycle;Max_cycle;Signal;HPM_P1;HPM_P2
2021/01/10 00:01:48;;;;;;;4.10;3.67;;;1.40;99.90;;;;;;4937026;28;20547;-77
2021/01/10 00:04:13;;;;;;;4.40;4.00;;;1.50;99.90;;;;;;4960845;28;20401;-77
2021/01/10 00:06:39;;;;;;;4.38;3.92;;;1.40;99.90;;;;;;4947797;28;20502;-76
2021/01/10 00:09:05;;;;;;;5.05;4.00;;;1.50;99.90;;;;;;4922265;28;20405;-75
2021/01/10 00:11:30;;;;;;;5.33;3.97;;;1.50;99.90;;;;;;4923293;29;21114;-75
2021/01/10 00:13:56;;;;;;;3.85;3.50;;;1.50;99.90;;;;;;4892087;29;20881;-75
2021/01/10 00:16:23;;;;;;;4.10;3.70;;;1.50;99.90;;;;;;4942121;28;20430;-75
2021/01/10 00:18:49;;;;;;;5.47;3.92;;;1.50;99.90;;;;;;4937886;28;20441;-76
2021/01/10 00:21:15;;;;;;;4.90;4.20;;;1.60;99.90;;;;;;4948182;28;20413;-75
2021/01/10 00:23:41;;;;;;;4.45;4.05;;;1.50;99.90;;;;;;4948600;28;20417;-76
2021/01/10 00:26:07;;;;;;;6.33;4.27;;;1.50;99.90;;;;;;4926010;29;20456;-76
2021/01/10 00:28:32;;;;;;;4.60;4.10;;;1.50;99.90;;;;;;4936109;29;20405;-76
2021/01/10 00:30:58;;;;;;;5.90;4.50;;;1.50;99.90;;;;;;4933957;29;20411;-76
2021/01/10 00:33:24;;;;;;;6.27;4.93;;;1.50;99.90;;;;;;4944637;28;20423;-76
2021/01/10 00:35:49;;;;;;;5.63;4.37;;;1.50;99.90;;;;;;4920134;29;20474;-76
2021/01/10 00:38:15;;;;;;;5.28;4.65;;;1.50;99.90;;;;;;4943696;29;20416;-76
2021/01/10 00:40:41;;;;;;;4.90;4.40;;;1.50;99.90;;;;;;4930634;29;20480;-76
2021/01/10 00:43:08;;;;;;;4.57;4.07;;;1.50;99.90;;;;;;4937734;28;20501;-77
2021/01/10 00:45:33;;;;;;;5.68;4.72;;;1.60;99.90;;;;;;4931709;28;20492;-76
2021/01/10 00:47:59;;;;;;;6.03;5.00;;;1.60;99.90;;;;;;4946769;28;21019;-76
2021/01/10 00:50:34;;;;;;;5.53;4.95;;;1.60;99.90;;;;;;4932578;28;20457;-75
2021/01/10 00:53:01;;;;;;;5.07;4.55;;;1.60;99.90;;;;;;4928625;29;20406;-74
2021/01/10 00:55:27;;;;;;;6.78;5.05;;;1.60;99.90;;;;;;4955332;28;20493;-76
2021/01/10 00:57:53;;;;;;;7.38;5.50;;;1.50;99.90;;;;;;4925264;29;20968;-76
2021/01/10 01:00:23;;;;;;;6.18;4.80;;;1.50;99.90;;;;;;4914409;28;20400;-75
2021/01/10 01:02:50;;;;;;;5.05;4.47;;;1.50;99.90;;;;;;4929292;29;20455;-75
2021/01/10 01:05:18;;;;;;;5.47;4.88;;;1.60;99.90;;;;;;4895136;29;20440;-75
2021/01/10 01:07:44;;;;;;;5.93;4.65;;;1.60;99.90;;;;;;4929211;29;20912;-76
2021/01/10 01:10:10;;;;;;;5.50;4.63;;;1.70;99.90;;;;;;4929103;29;20437;-75
2021/01/10 01:12:36;;;;;;;5.20;4.70;;;1.70;99.90;;;;;;4947166;28;21005;-75
2021/01/10 01:15:02;;;;;;;5.90;5.07;;;1.70;99.90;;;;;;4939563;28;20493;-75
2021/01/10 01:17:27;;;;;;;6.70;4.47;;;1.70;99.90;;;;;;4948780;28;20411;-75
2021/01/10 01:19:53;;;;;;;6.73;5.40;;;1.70;99.90;;;;;;4928953;29;20418;-76
2021/01/10 01:22:19;;;;;;;6.63;5.57;;;1.70;99.90;;;;;;4897030;28;20421;-76
2021/01/10 01:24:45;;;;;;;5.77;5.00;;;1.70;99.90;;;;;;4920006;28;20401;-76
2021/01/10 01:27:10;;;;;;;6.60;5.20;;;1.70;99.90;;;;;;4911290;28;20510;-76
2021/01/10 01:29:36;;;;;;;7.07;5.45;;;1.80;99.90;;;;;;4928465;29;20800;-76
2021/01/10 01:32:02;;;;;;;8.52;5.35;;;1.70;99.90;;;;;;4927168;29;20502;-77
2021/01/10 01:34:28;;;;;;;6.30;5.03;;;1.70;99.90;;;;;;4912383;29;20411;-76
2021/01/10 01:36:53;;;;;;;6.93;5.13;;;1.90;99.90;;;;;;4945848;28;20801;-76
2021/01/10 01:39:19;;;;;;;6.15;4.85;;;1.70;99.90;;;;;;4943910;29;20411;-76
2021/01/10 01:41:45;;;;;;;7.67;5.97;;;1.70;99.90;;;;;;4927485;29;20404;-77
2021/01/10 01:44:10;;;;;;;5.33;4.63;;;1.70;99.90;;;;;;4911152;29;20825;-76
2021/01/10 01:46:37;;;;;;;6.95;5.50;;;1.80;99.90;;;;;;4926877;29;20415;-76
2021/01/10 01:49:09;;;;;;;6.63;5.68;;;1.80;99.90;;;;;;4927117;29;20429;-76
2021/01/10 01:51:35;;;;;;;6.90;5.25;;;1.80;99.90;;;;;;4927608;29;20419;-76
2021/01/10 01:54:02;;;;;;;6.80;5.18;;;1.80;99.90;;;;;;4944237;28;20412;-75
2021/01/10 01:56:28;;;;;;;7.13;5.40;;;1.80;99.90;;;;;;4904982;28;20507;-76
2021/01/10 01:58:58;;;;;;;6.65;5.38;;;1.80;99.90;;;;;;4912555;29;20410;-76
2021/01/10 02:01:24;;;;;;;5.70;5.03;;;1.80;99.90;;;;;;4937187;28;20476;-76
2021/01/10 02:03:50;;;;;;;6.28;5.68;;;1.80;99.90;;;;;;4924524;28;20411;-76
2021/01/10 02:06:22;;;;;;;7.53;5.80;;;1.80;99.90;;;;;;4911807;28;20504;-76
2021/01/10 02:08:48;;;;;;;7.13;5.57;;;1.80;99.90;;;;;;4924090;29;20902;-76
2021/01/10 02:11:13;;;;;;;7.15;5.57;;;1.80;99.90;;;;;;4911209;29;20412;-76
2021/01/10 02:13:39;;;;;;;7.50;5.87;;;1.80;99.90;;;;;;4934368;28;20412;-76
2021/01/10 02:16:05;;;;;;;7.97;5.57;;;1.80;99.90;;;;;;4931733;28;20422;-75
2021/01/10 02:18:30;;;;;;;8.45;6.28;;;1.80;99.90;;;;;;4944426;28;20415;-76
2021/01/10 02:21:05;;;;;;;8.17;6.23;;;1.80;99.90;;;;;;4926244;29;20434;-76
2021/01/10 02:23:30;;;;;;;8.68;6.15;;;1.90;99.90;;;;;;4950150;28;20425;-75
2021/01/10 02:25:56;;;;;;;7.40;5.90;;;1.90;99.90;;;;;;4925488;28;21006;-77
2021/01/10 02:28:23;;;;;;;8.77;6.13;;;1.90;99.90;;;;;;4927237;28;20408;-75
2021/01/10 02:30:49;;;;;;;9.05;6.10;;;1.90;99.90;;;;;;4941448;28;20418;-75
2021/01/10 02:33:36;;;;;;;7.55;5.57;;;1.90;99.90;;;;;;4928381;29;20686;-76
2021/01/10 02:36:08;;;;;;;6.65;5.97;;;1.90;99.90;;;;;;4933757;29;21141;-76
2021/01/10 02:38:49;;;;;;;7.85;6.13;;;1.90;99.90;;;;;;4927135;28;20411;-76
2021/01/10 02:41:22;;;;;;;9.40;6.47;;;1.90;99.90;;;;;;4925136;28;21377;-75
2021/01/10 02:44:11;;;;;;;7.93;6.13;;;1.90;99.90;;;;;;4896644;29;20427;-76
2021/01/10 02:46:36;;;;;;;8.53;5.80;;;1.90;99.90;;;;;;4921867;29;20950;-76
2021/01/10 02:49:02;;;;;;;6.77;6.07;;;1.90;99.90;;;;;;4924919;29;20422;-76
2021/01/10 02:51:28;;;;;;;8.45;6.10;;;1.90;99.90;;;;;;4942039;29;20408;-76
2021/01/10 02:53:53;;;;;;;5.97;5.37;;;1.90;99.90;;;;;;4925011;29;20466;-76
2021/01/10 02:56:19;;;;;;;9.40;6.20;;;2.00;99.90;;;;;;4941278;28;20415;-76
2021/01/10 02:58:45;;;;;;;8.48;6.43;;;2.00;99.90;;;;;;4920571;29;20470;-76
2021/01/10 03:01:11;;;;;;;8.80;6.93;;;2.00;99.90;;;;;;4923624;28;20414;-76
2021/01/10 03:03:37;;;;;;;7.00;6.00;;;2.00;99.90;;;;;;4922785;28;20409;-75
2021/01/10 03:06:03;;;;;;;9.07;6.93;;;2.10;99.90;;;;;;4934504;29;20539;-76
2021/01/10 03:08:28;;;;;;;9.50;6.18;;;2.00;99.90;;;;;;4942022;28;20432;-75
2021/01/10 03:10:54;;;;;;;7.38;6.18;;;2.00;99.90;;;;;;4909536;29;20400;-77
2021/01/10 03:13:20;;;;;;;9.77;6.83;;;2.00;99.90;;;;;;4909020;29;20413;-76
2021/01/10 03:15:46;;;;;;;8.35;6.50;;;2.00;99.90;;;;;;4895619;28;20396;-75
2021/01/10 03:18:14;;;;;;;8.33;6.40;;;2.00;99.90;;;;;;4950745;28;20452;-75
2021/01/10 03:20:40;;;;;;;9.25;6.30;;;2.00;99.90;;;;;;4939386;28;20396;-76
2021/01/10 03:23:06;;;;;;;8.07;6.87;;;2.10;99.90;;;;;;4928115;29;20407;-75
2021/01/10 03:25:31;;;;;;;8.82;6.90;;;2.10;99.90;;;;;;4940839;28;20400;-76
2021/01/10 03:27:57;;;;;;;9.90;6.40;;;2.00;99.90;;;;;;4922054;29;20417;-76
2021/01/10 03:30:23;;;;;;;8.13;6.35;;;2.00;99.90;;;;;;4914100;28;20436;-76
2021/01/10 03:32:49;;;;;;;8.13;6.10;;;2.10;99.90;;;;;;4938696;28;20412;-76
2021/01/10 03:35:18;;;;;;;8.20;6.70;;;2.10;99.90;;;;;;4911308;29;20941;-77
2021/01/10 03:37:44;;;;;;;6.57;5.80;;;2.10;99.90;;;;;;4925029;29;20486;-76
2021/01/10 03:40:10;;;;;;;8.77;6.50;;;2.20;99.90;;;;;;4924550;29;20490;-77
2021/01/10 03:42:36;;;;;;;8.90;5.63;;;2.20;99.90;;;;;;4940918;28;20411;-76
2021/01/10 03:45:05;;;;;;;8.90;6.45;;;2.20;99.90;;;;;;4924323;28;20497;-76
2021/01/10 03:47:31;;;;;;;8.30;5.80;;;2.20;99.90;;;;;;4907451;28;20423;-76
2021/01/10 03:49:56;;;;;;;7.43;5.47;;;2.30;99.90;;;;;;4935210;28;21153;-76
2021/01/10 03:52:22;;;;;;;7.72;5.63;;;2.40;99.90;;;;;;4932436;28;20824;-77
2021/01/10 03:54:48;;;;;;;9.25;6.82;;;2.40;99.90;;;;;;4924515;28;20499;-76
2021/01/10 03:57:13;;;;;;;7.77;6.17;;;2.30;99.90;;;;;;4930598;29;20427;-77
2021/01/10 03:59:39;;;;;;;9.15;6.18;;;2.30;99.90;;;;;;4893360;29;20411;-77
2021/01/10 04:02:05;;;;;;;8.50;5.80;;;2.20;99.90;;;;;;4919567;29;20465;-77
2021/01/10 04:04:31;;;;;;;7.13;5.63;;;2.20;99.90;;;;;;4921808;28;20446;-77
2021/01/10 04:07:15;;;;;;;9.90;6.03;;;2.30;99.90;;;;;;4937065;28;20935;-77
2021/01/10 04:09:41;;;;;;;8.97;6.87;;;2.30;99.90;;;;;;4923900;29;20400;-77
2021/01/10 04:12:07;;;;;;;8.00;6.37;;;2.30;99.90;;;;;;4925609;29;20435;-77
2021/01/10 04:14:33;;;;;;;8.35;6.45;;;2.30;99.90;;;;;;4927469;28;20498;-76
2021/01/10 04:16:58;;;;;;;7.40;6.10;;;2.40;99.90;;;;;;4934221;29;20487;-76
2021/01/10 04:19:24;;;;;;;8.70;6.80;;;2.40;99.90;;;;;;4928298;29;20387;-77
2021/01/10 04:21:50;;;;;;;9.57;6.70;;;2.40;99.90;;;;;;4909966;29;21027;-75
2021/01/10 04:24:15;;;;;;;8.13;6.05;;;2.30;99.90;;;;;;4944361;28;20403;-77
2021/01/10 04:26:48;;;;;;;8.50;6.17;;;2.30;99.90;;;;;;4927106;29;20411;-76
2021/01/10 04:29:17;;;;;;;7.68;6.68;;;2.40;99.90;;;;;;4927963;29;20512;-76
2021/01/10 04:31:42;;;;;;;7.18;5.93;;;2.40;99.90;;;;;;4940458;28;20448;-76
2021/01/10 04:34:08;;;;;;;11.27;7.13;;;2.40;99.90;;;;;;4935461;29;20439;-76
2021/01/10 04:36:34;;;;;;;9.55;7.03;;;2.40;99.90;;;;;;4930849;29;20945;-77
2021/01/10 04:38:59;;;;;;;10.05;7.47;;;2.30;99.90;;;;;;4943838;29;20487;-77
2021/01/10 04:41:25;;;;;;;7.83;6.67;;;2.20;99.90;;;;;;4944497;29;20404;-77
2021/01/10 04:43:52;;;;;;;10.95;6.80;;;2.20;99.90;;;;;;4918149;29;20932;-76
2021/01/10 04:46:18;;;;;;;8.75;6.57;;;2.10;99.90;;;;;;4927637;29;20419;-77
2021/01/10 04:48:43;;;;;;;10.38;6.88;;;2.20;99.90;;;;;;4926839;29;20754;-77
2021/01/10 04:51:11;;;;;;;8.07;6.87;;;2.20;99.90;;;;;;4944625;29;20490;-76
2021/01/10 04:53:37;;;;;;;9.73;7.22;;;2.20;99.90;;;;;;4933442;28;20407;-75
2021/01/10 04:56:03;;;;;;;11.00;8.18;;;2.10;99.90;;;;;;4946233;28;20411;-76
2021/01/10 04:58:29;;;;;;;10.10;7.80;;;2.10;99.90;;;;;;4944035;28;20862;-76
2021/01/10 05:00:57;;;;;;;8.20;7.20;;;2.10;99.90;;;;;;4911322;29;20443;-75
2021/01/10 05:03:24;;;;;;;10.85;7.65;;;2.10;99.90;;;;;;4944670;29;20482;-75
2021/01/10 05:05:49;;;;;;;8.38;7.10;;;2.00;99.90;;;;;;4926467;29;20426;-76
2021/01/10 05:08:15;;;;;;;11.93;7.30;;;2.10;99.90;;;;;;4943921;29;20769;-75
2021/01/10 05:10:41;;;;;;;7.72;6.50;;;2.10;99.90;;;;;;4927123;29;20400;-76
2021/01/10 05:13:06;;;;;;;7.77;6.97;;;2.20;99.90;;;;;;4930629;29;20407;-76
2021/01/10 05:15:32;;;;;;;7.25;6.55;;;2.10;99.90;;;;;;4932494;29;21575;-76
2021/01/10 05:17:58;;;;;;;7.88;6.40;;;2.00;99.90;;;;;;4911016;29;20498;-76
2021/01/10 05:20:25;;;;;;;9.40;7.25;;;2.00;99.90;;;;;;4911986;29;21070;-76
2021/01/10 05:22:51;;;;;;;8.05;6.80;;;2.00;99.90;;;;;;4900969;28;20408;-77
2021/01/10 05:25:17;;;;;;;8.30;6.67;;;2.00;99.90;;;;;;4919036;28;20414;-76
2021/01/10 05:27:49;;;;;;;8.47;6.80;;;2.00;99.90;;;;;;4922477;28;20556;-76
2021/01/10 05:30:15;;;;;;;11.67;7.60;;;2.00;99.90;;;;;;4912884;29;20412;-76
2021/01/10 05:32:41;;;;;;;12.30;8.07;;;2.00;99.90;;;;;;4947303;28;20423;-76
2021/01/10 05:35:07;;;;;;;11.02;6.78;;;2.00;99.90;;;;;;4946030;28;20403;-76
2021/01/10 05:37:33;;;;;;;9.80;7.30;;;2.00;99.90;;;;;;4928650;29;20404;-76
2021/01/10 05:39:59;;;;;;;10.83;7.50;;;2.00;99.90;;;;;;4911993;29;20422;-76
2021/01/10 05:42:29;;;;;;;9.80;8.00;;;2.00;99.90;;;;;;4928346;28;20407;-75
2021/01/10 05:44:55;;;;;;;11.77;8.85;;;2.00;99.90;;;;;;4913637;29;20490;-76
2021/01/10 05:47:20;;;;;;;11.50;8.07;;;1.90;99.90;;;;;;4950489;28;20414;-76
2021/01/10 05:49:55;;;;;;;11.95;7.85;;;1.90;99.90;;;;;;4948368;28;20518;-76
2021/01/10 05:52:21;;;;;;;14.07;8.20;;;1.90;99.90;;;;;;4944761;28;20400;-76
2021/01/10 05:54:48;;;;;;;11.55;8.63;;;1.90;99.90;;;;;;4960087;28;20402;-76
2021/01/10 05:57:18;;;;;;;10.80;8.48;;;1.90;99.90;;;;;;4911089;29;20424;-76
2021/01/10 05:59:48;;;;;;;14.45;9.15;;;1.90;99.90;;;;;;4943222;28;20430;-75
2021/01/10 06:02:13;;;;;;;12.98;9.05;;;1.80;99.90;;;;;;4943415;28;20426;-74
2021/01/10 06:04:39;;;;;;;14.00;9.03;;;1.80;99.90;;;;;;4945489;28;20765;-75
2021/01/10 06:07:05;;;;;;;13.43;9.47;;;1.90;99.90;;;;;;4944191;29;20415;-75
2021/01/10 06:09:46;;;;;;;12.10;8.50;;;1.80;99.90;;;;;;4943950;28;20412;-75
2021/01/10 06:12:24;;;;;;;11.57;7.97;;;1.80;99.90;;;;;;4931899;29;20432;-76
2021/01/10 06:15:09;;;;;;;16.40;9.52;;;1.80;99.90;;;;;;4938526;29;21002;-75
2021/01/10 06:17:46;;;;;;;10.57;9.07;;;1.90;99.90;;;;;;4952236;28;20477;-75
2021/01/10 06:20:28;;;;;;;12.02;8.35;;;1.90;99.90;;;;;;4916334;29;20403;-74
2021/01/10 06:22:56;;;;;;;12.73;8.65;;;1.90;99.90;;;;;;4907192;28;20425;-75
2021/01/10 06:25:31;;;;;;;10.20;8.00;;;1.80;99.90;;;;;;4922583;29;20412;-75
2021/01/10 06:28:00;;;;;;;13.25;8.77;;;1.80;99.90;;;;;;4912151;29;21184;-74
2021/01/10 06:30:26;;;;;;;11.63;9.40;;;1.80;99.90;;;;;;4927857;28;20418;-74
2021/01/10 06:32:51;;;;;;;13.68;9.32;;;1.80;99.90;;;;;;4934661;28;20404;-75
2021/01/10 06:35:17;;;;;;;11.20;8.50;;;1.80;99.90;;;;;;4930668;29;20495;-75
2021/01/10 06:37:43;;;;;;;11.27;8.50;;;1.80;99.90;;;;;;4927790;28;20944;-75
2021/01/10 06:40:09;;;;;;;11.02;8.90;;;1.80;99.90;;;;;;4935089;29;20429;-76
2021/01/10 06:42:37;;;;;;;13.38;9.18;;;1.80;99.90;;;;;;4943125;29;20415;-75
2021/01/10 06:45:03;;;;;;;12.67;8.67;;;1.80;99.90;;;;;;4927552;29;20411;-75
2021/01/10 06:47:29;;;;;;;8.95;7.53;;;1.80;99.90;;;;;;4911558;29;21027;-75
2021/01/10 06:49:54;;;;;;;12.37;8.17;;;1.80;99.90;;;;;;4923999;28;20520;-75
2021/01/10 06:52:23;;;;;;;11.70;9.10;;;1.80;99.90;;;;;;4936066;28;20950;-75
2021/01/10 06:54:48;;;;;;;15.35;10.55;;;1.70;99.90;;;;;;4915587;29;20499;-74
2021/01/10 06:57:14;;;;;;;14.05;10.05;;;1.70;99.90;;;;;;4904885;29;20410;-75
2021/01/10 07:00:00;;;;;;;15.40;9.38;;;1.80;99.90;;;;;;4943469;29;20482;-75
2021/01/10 07:02:26;;;;;;;13.43;9.48;;;1.80;99.90;;;;;;4924334;29;20410;-75
2021/01/10 07:04:54;;;;;;;13.63;9.87;;;1.90;99.90;;;;;;4913178;29;20407;-76
2021/01/10 07:07:39;;;;;;;11.45;9.00;;;1.80;99.90;;;;;;4927647;29;20423;-75
2021/01/10 07:10:10;;;;;;;9.73;7.82;;;1.70;99.90;;;;;;4931414;28;20422;-75
2021/01/10 07:12:36;;;;;;;12.25;7.97;;;1.70;99.90;;;;;;4946124;28;20743;-76
2021/01/10 07:15:20;;;;;;;12.17;8.53;;;1.70;99.90;;;;;;4943815;28;20416;-75
2021/01/10 07:18:07;;;;;;;10.20;8.07;;;1.70;99.90;;;;;;4912234;29;20935;-75
2021/01/10 07:20:40;;;;;;;10.85;7.88;;;1.60;99.90;;;;;;4922331;29;20417;-76
2021/01/10 07:23:25;;;;;;;9.93;7.80;;;1.70;99.90;;;;;;4927806;28;20418;-75
2021/01/10 07:25:51;;;;;;;11.75;7.90;;;1.70;99.90;;;;;;4908699;28;20409;-75
2021/01/10 07:28:49;;;;;;;10.17;7.23;;;1.60;99.90;;;;;;4929005;28;20488;-75
2021/01/10 07:31:17;;;;;;;8.93;7.90;;;1.70;99.90;;;;;;4902602;29;20407;-75
2021/01/10 07:33:43;;;;;;;10.13;7.72;;;1.60;99.90;;;;;;4946063;28;20411;-75
2021/01/10 07:36:12;;;;;;;9.90;7.97;;;1.60;99.90;;;;;;4928546;29;20402;-75
2021/01/10 07:38:39;;;;;;;9.93;7.60;;;1.60;99.90;;;;;;4929183;28;20467;-75
2021/01/10 07:41:27;;;;;;;8.80;7.47;;;1.60;99.90;;;;;;4913376;28;20942;-75
2021/01/10 07:43:54;;;;;;;9.68;7.00;;;1.60;99.90;;;;;;4927719;29;20445;-75
2021/01/10 07:46:51;;;;;;;10.73;7.82;;;1.60;99.90;;;;;;4907981;29;20453;-75
2021/01/10 07:49:22;;;;;;;9.02;7.72;;;1.60;99.90;;;;;;4931489;28;20415;-75
2021/01/10 07:51:47;;;;;;;10.38;7.50;;;1.60;99.90;;;;;;4947467;28;20407;-75
2021/01/10 07:54:13;;;;;;;10.43;7.93;;;1.60;99.90;;;;;;4932181;28;20430;-75
2021/01/10 07:56:39;;;;;;;9.27;6.93;;;1.60;99.90;;;;;;4928623;28;20431;-76
2021/01/10 07:59:17;;;;;;;12.43;7.87;;;1.60;99.90;;;;;;4916445;29;20596;-75
2021/01/10 08:01:49;;;;;;;9.43;7.38;;;1.60;99.90;;;;;;4940925;28;20451;-75
2021/01/10 08:04:34;;;;;;;8.38;7.40;;;1.70;99.90;;;;;;4918825;29;20399;-75
2021/01/10 08:07:00;;;;;;;10.47;7.20;;;1.60;99.90;;;;;;4929646;29;20448;-75
2021/01/10 08:09:30;;;;;;;9.90;7.68;;;1.50;99.90;;;;;;4934686;28;20411;-75
2021/01/10 08:11:55;;;;;;;15.38;10.10;;;1.60;99.90;;;;;;4947495;28;20431;-75
2021/01/10 08:14:21;;;;;;;28.53;19.13;;;1.50;99.90;;;;;;4947415;28;20438;-76
2021/01/10 08:16:47;;;;;;;16.77;12.15;;;1.60;99.90;;;;;;4942531;29;20423;-75
2021/01/10 08:19:12;;;;;;;11.80;9.15;;;1.50;99.90;;;;;;4949866;28;20750;-75
2021/01/10 08:21:38;;;;;;;11.27;7.53;;;1.60;99.90;;;;;;4912201;29;20424;-75
2021/01/10 08:24:05;;;;;;;10.90;7.80;;;1.60;99.90;;;;;;4925105;28;20408;-75
2021/01/10 08:26:36;;;;;;;10.52;7.30;;;1.60;99.90;;;;;;4920013;28;20432;-75
2021/01/10 08:29:06;;;;;;;8.33;6.63;;;1.50;99.90;;;;;;4920379;29;20420;-76
2021/01/10 08:31:32;;;;;;;9.07;7.25;;;1.50;99.90;;;;;;4928540;29;20917;-75
2021/01/10 08:34:01;;;;;;;12.57;8.47;;;1.50;99.90;;;;;;4928133;29;20485;-75
2021/01/10 08:36:27;;;;;;;7.05;6.13;;;1.50;99.90;;;;;;4896960;29;20419;-76
2021/01/10 08:38:59;;;;;;;9.17;6.23;;;1.40;99.90;;;;;;4917348;29;20931;-76
2021/01/10 08:41:45;;;;;;;7.28;6.20;;;1.40;99.90;;;;;;4935626;28;20414;-76
2021/01/10 08:44:18;;;;;;;6.50;5.13;;;1.40;99.90;;;;;;4927848;28;20412;-77
2021/01/10 08:46:50;;;;;;;7.47;6.10;;;1.40;99.90;;;;;;4917158;29;20473;-76
2021/01/10 08:49:16;;;;;;;7.00;5.55;;;1.40;99.90;;;;;;4933337;29;20438;-75
2021/01/10 08:51:42;;;;;;;6.45;5.13;;;1.40;99.90;;;;;;4930780;29;20405;-75
2021/01/10 08:54:09;;;;;;;6.43;5.07;;;1.50;99.90;;;;;;4932340;29;20440;-76
2021/01/10 08:56:35;;;;;;;5.07;4.43;;;1.50;99.90;;;;;;4932709;29;20403;-76
2021/01/10 08:59:01;;;;;;;6.20;4.57;;;1.50;99.90;;;;;;4945201;28;20438;-73
2021/01/10 09:01:27;;;;;;;5.20;4.67;;;1.50;99.90;;;;;;4945570;28;20431;-73
2021/01/10 09:04:04;;;;;;;5.25;3.95;;;1.70;99.90;;;;;;4933066;28;20498;-74
2021/01/10 09:06:44;;;;;;;5.38;4.53;;;1.50;99.90;;;;;;4933990;28;20422;-73
2021/01/10 09:09:19;;;;;;;5.03;4.53;;;1.50;99.90;;;;;;4946268;29;20415;-73
2021/01/10 09:11:46;;;;;;;5.90;4.55;;;1.50;99.90;;;;;;4932642;29;20411;-74
2021/01/10 09:14:12;;;;;;;6.95;4.80;;;1.50;99.90;;;;;;4951805;28;20477;-74
2021/01/10 09:16:37;;;;;;;5.27;4.40;;;1.50;99.90;;;;;;4915785;28;20480;-74
2021/01/10 09:19:03;;;;;;;6.18;4.75;;;1.50;99.90;;;;;;4928144;29;20413;-73
2021/01/10 09:21:29;;;;;;;5.20;4.68;;;1.50;99.90;;;;;;4922992;29;20814;-74
2021/01/10 09:23:56;;;;;;;4.65;4.20;;;1.50;99.90;;;;;;4931198;29;20995;-74
2021/01/10 09:26:25;;;;;;;6.22;4.68;;;1.50;99.90;;;;;;4932943;28;20428;-73
2021/01/10 09:28:51;;;;;;;5.53;4.80;;;1.50;99.90;;;;;;4949857;28;20399;-74
2021/01/10 09:31:17;;;;;;;5.80;5.00;;;1.50;99.90;;;;;;4928976;28;20700;-74
2021/01/10 09:33:43;;;;;;;5.53;4.03;;;1.60;99.90;;;;;;4947966;28;20963;-73
2021/01/10 09:36:09;;;;;;;6.50;4.83;;;1.60;99.90;;;;;;4946805;28;20808;-73
2021/01/10 09:38:36;;;;;;;5.13;4.63;;;1.70;99.90;;;;;;4941335;29;20496;-74
2021/01/10 09:41:09;;;;;;;10.05;5.70;;;1.60;99.90;;;;;;4909690;29;20436;-73
2021/01/10 09:43:54;;;;;;;6.93;5.20;;;1.70;99.90;;;;;;4931361;28;21138;-74
2021/01/10 09:46:30;;;;;;;6.00;5.17;;;1.70;99.90;;;;;;4076986;28;10001228;-74
2021/01/10 09:49:03;;;;;;;5.60;4.55;;;1.60;99.90;;;;;;4922695;29;20506;-73
2021/01/10 09:51:39;;;;;;;5.20;4.45;;;1.70;99.90;;;;;;4929610;28;20397;-74
2021/01/10 09:54:12;;;;;;;4.82;3.75;;;1.80;99.90;;;;;;4930859;28;20429;-72
2021/01/10 09:56:38;;;;;;;4.37;3.93;;;1.90;99.90;;;;;;4929767;28;20468;-73
2021/01/10 09:59:04;;;;;;;5.32;3.85;;;1.90;99.90;;;;;;4923135;29;20460;-73
2021/01/10 10:01:38;;;;;;;5.68;4.50;;;1.90;99.90;;;;;;4936960;28;20410;-73
2021/01/10 10:04:04;;;;;;;6.38;4.68;;;1.80;99.90;;;;;;4916505;29;20458;-75
2021/01/10 10:06:50;;;;;;;5.47;4.60;;;1.80;99.90;;;;;;4932170;28;20419;-75
2021/01/10 10:09:16;;;;;;;5.18;4.47;;;1.80;99.90;;;;;;4930629;29;20421;-76
2021/01/10 10:11:42;;;;;;;6.37;4.73;;;1.90;99.90;;;;;;4921532;29;20411;-76
2021/01/10 10:14:08;;;;;;;6.53;4.97;;;2.10;99.90;;;;;;4935644;28;21142;-76
2021/01/10 10:16:34;;;;;;;5.55;4.78;;;2.20;99.90;;;;;;4946908;28;20400;-73
2021/01/10 10:18:59;;;;;;;6.03;4.82;;;2.20;99.90;;;;;;4943173;28;20403;-75
2021/01/10 10:21:25;;;;;;;5.85;4.65;;;2.20;99.90;;;;;;4945253;28;20407;-75
2021/01/10 10:23:51;;;;;;;4.40;3.93;;;2.10;99.90;;;;;;4943534;28;21120;-75
2021/01/10 10:26:16;;;;;;;5.93;4.30;;;2.20;99.90;;;;;;4942138;28;20878;-74
2021/01/10 10:28:42;;;;;;;5.28;4.10;;;2.30;99.90;;;;;;4942780;28;20893;-71
2021/01/10 10:31:09;;;;;;;5.10;4.57;;;2.50;99.90;;;;;;4927725;29;20433;-73
2021/01/10 10:33:35;;;;;;;4.63;4.20;;;2.50;99.90;;;;;;4946110;28;20416;-73
2021/01/10 10:36:01;;;;;;;4.53;4.00;;;2.30;99.90;;;;;;4939810;28;20416;-74
2021/01/10 10:38:27;;;;;;;7.25;4.72;;;2.20;99.90;;;;;;4923602;29;20472;-74
2021/01/10 10:40:53;;;;;;;5.32;4.25;;;2.30;99.90;;;;;;4930871;29;20943;-74
2021/01/10 10:43:19;;;;;;;4.82;4.32;;;2.40;99.90;;;;;;4925935;28;20401;-74
2021/01/10 10:45:45;;;;;;;6.03;4.35;;;2.50;99.90;;;;;;4913812;29;20950;-74
2021/01/10 10:48:11;;;;;;;4.65;3.90;;;2.40;99.90;;;;;;4953858;28;20451;-72
2021/01/10 10:50:54;;;;;;;5.63;4.23;;;2.40;99.90;;;;;;4932613;28;20407;-74
2021/01/10 10:53:22;;;;;;;5.10;4.10;;;2.50;99.90;;;;;;4926700;29;20437;-74
2021/01/10 10:55:48;;;;;;;5.93;4.30;;;2.40;99.90;;;;;;4944133;28;20964;-74
2021/01/10 10:58:13;;;;;;;4.97;4.07;;;2.40;99.90;;;;;;4929864;28;20407;-74
2021/01/10 11:00:40;;;;;;;7.90;5.90;;;2.40;99.90;;;;;;4943979;28;20905;-74
2021/01/10 11:03:05;;;;;;;6.45;4.90;;;2.50;99.90;;;;;;4938253;28;20478;-74
2021/01/10 11:05:31;;;;;;;5.05;4.15;;;2.60;99.90;;;;;;4950825;28;20409;-73
2021/01/10 11:07:57;;;;;;;6.93;5.03;;;2.60;99.90;;;;;;4944919;28;20422;-74
2021/01/10 11:10:22;;;;;;;5.57;4.13;;;2.60;99.90;;;;;;4929620;28;20502;-74
2021/01/10 11:12:48;;;;;;;8.68;5.45;;;2.60;99.90;;;;;;4943534;28;20420;-74
2021/01/10 11:15:14;;;;;;;6.40;4.70;;;2.60;99.90;;;;;;4951703;28;20918;-72
2021/01/10 11:17:39;;;;;;;5.53;4.50;;;2.70;99.90;;;;;;4940411;28;20431;-73
2021/01/10 11:20:06;;;;;;;4.28;3.70;;;2.60;99.90;;;;;;4926032;29;20429;-74
2021/01/10 11:22:35;;;;;;;4.78;4.00;;;2.60;99.90;;;;;;4945998;28;21845;-74
2021/01/10 11:25:08;;;;;;;5.25;4.35;;;2.50;99.90;;;;;;4922737;29;20443;-74
2021/01/10 11:27:33;;;;;;;5.13;4.35;;;2.40;99.90;;;;;;4927790;29;20447;-75
2021/01/10 11:29:59;;;;;;;5.82;4.25;;;2.40;99.90;;;;;;4947012;28;20437;-74
2021/01/10 11:32:25;;;;;;;5.93;4.43;;;2.40;99.90;;;;;;4939603;28;20420;-74
2021/01/10 11:34:51;;;;;;;4.80;4.17;;;2.30;99.90;;;;;;4939443;28;20412;-74
2021/01/10 11:37:17;;;;;;;7.30;4.10;;;2.40;99.90;;;;;;4947517;28;20584;-75
2021/01/10 11:39:42;;;;;;;4.05;3.65;;;2.20;99.90;;;;;;4935332;29;20404;-74
2021/01/10 11:42:13;;;;;;;6.22;4.88;;;2.20;99.90;;;;;;4931537;29;20931;-74
2021/01/10 11:44:38;;;;;;;9.48;6.95;;;2.10;99.90;;;;;;4947853;28;21443;-74
2021/01/10 11:47:04;;;;;;;7.00;5.70;;;2.10;99.90;;;;;;4933756;28;20921;-74
2021/01/10 11:49:30;;;;;;;11.35;8.35;;;2.00;99.90;;;;;;4910956;29;20428;-74
2021/01/10 11:51:56;;;;;;;8.40;5.90;;;2.10;99.90;;;;;;4948183;28;20416;-75
2021/01/10 11:54:21;;;;;;;4.22;3.83;;;2.10;99.90;;;;;;4956170;28;20435;-74
2021/01/10 11:56:47;;;;;;;4.35;3.95;;;2.10;99.90;;;;;;4935319;29;20399;-74
2021/01/10 11:59:16;;;;;;;4.15;3.75;;;2.10;99.90;;;;;;4950210;28;20443;-74
2021/01/10 12:01:42;;;;;;;4.15;3.75;;;2.00;99.90;;;;;;4944888;28;20837;-74
2021/01/10 12:04:08;;;;;;;4.40;3.70;;;2.00;99.90;;;;;;4952084;28;20420;-74
2021/01/10 12:06:35;;;;;;;5.20;4.17;;;2.00;99.90;;;;;;4931141;29;20431;-74
2021/01/10 12:09:01;;;;;;;4.55;3.85;;;2.00;99.90;;;;;;4931641;29;20478;-74
2021/01/10 12:11:27;;;;;;;4.13;3.63;;;2.00;99.90;;;;;;4945770;29;21085;-75
2021/01/10 12:13:52;;;;;;;4.45;3.80;;;2.10;99.90;;;;;;4930500;29;20410;-74
2021/01/10 12:16:19;;;;;;;4.40;4.00;;;2.10;99.90;;;;;;4936145;29;20403;-74
2021/01/10 12:18:46;;;;;;;5.80;4.43;;;2.20;99.90;;;;;;4932597;29;20422;-76
2021/01/10 12:21:12;;;;;;;4.57;3.97;;;2.20;99.90;;;;;;4932466;29;20897;-75
2021/01/10 12:23:38;;;;;;;4.28;3.88;;;2.10;99.90;;;;;;4931074;28;20420;-76
2021/01/10 12:26:14;;;;;;;4.18;3.20;;;2.10;99.90;;;;;;4917180;29;20402;-76
2021/01/10 12:28:40;;;;;;;4.57;3.40;;;2.10;99.90;;;;;;4917301;29;20407;-76
2021/01/10 12:31:06;;;;;;;3.50;3.20;;;1.90;99.90;;;;;;4917493;29;20402;-76
2021/01/10 12:33:35;;;;;;;4.88;3.67;;;2.00;99.90;;;;;;4917070;28;20627;-77
2021/01/10 12:36:01;;;;;;;4.10;3.73;;;1.90;99.90;;;;;;4929856;28;20403;-76
2021/01/10 12:38:27;;;;;;;3.47;3.17;;;2.10;99.90;;;;;;4948704;29;20400;-82
2021/01/10 12:40:53;;;;;;;4.60;3.75;;;2.00;99.90;;;;;;4945050;29;20402;-75
2021/01/10 12:43:18;;;;;;;4.33;3.83;;;1.90;99.90;;;;;;4954904;29;20411;-76
2021/01/10 12:45:44;;;;;;;3.95;3.60;;;1.90;99.90;;;;;;4949373;29;21465;-76
2021/01/10 12:48:12;;;;;;;4.03;3.30;;;1.90;99.90;;;;;;4935055;29;20446;-75
2021/01/10 12:50:38;;;;;;;3.65;3.35;;;1.60;99.90;;;;;;4952629;29;20412;-77
2021/01/10 12:53:04;;;;;;;3.72;3.22;;;1.70;99.90;;;;;;4918927;29;20407;-78
2021/01/10 12:55:30;;;;;;;3.63;3.15;;;1.60;99.90;;;;;;4934795;29;20499;-81
2021/01/10 12:57:56;;;;;;;3.33;2.92;;;1.60;99.90;;;;;;4934298;29;20411;-75
2021/01/10 13:00:22;;;;;;;3.30;3.00;;;1.60;99.90;;;;;;4917481;29;20406;-78